sensor_id;sensor_type;location;lat;lon;timestamp;temperature;humidity
44305;DHT22;30019;50.576;8.568;2024-02-23T00:01:39;8.00;56.30
44305;DHT22;30019;50.576;8.568;2024-02-23T00:04:05;8.00;55.90
44305;DHT22;30019;50.576;8.568;2024-02-23T00:06:33;8.10;54.10
44305;DHT22;30019;50.576;8.568;2024-02-23T00:08:59;8.10;54.70
44305;DHT22;30019;50.576;8.568;2024-02-23T00:11:25;8.00;55.10
44305;DHT22;30019;50.576;8.568;2024-02-23T00:13:50;8.00;54.10
44305;DHT22;30019;50.576;8.568;2024-02-23T00:16:16;8.00;54.00
44305;DHT22;30019;50.576;8.568;2024-02-23T00:18:41;7.90;54.00
44305;DHT22;30019;50.576;8.568;2024-02-23T00:21:07;7.90;54.10
44305;DHT22;30019;50.576;8.568;2024-02-23T00:23:32;7.90;53.40
44305;DHT22;30019;50.576;8.568;2024-02-23T00:25:58;7.90;54.00
44305;DHT22;30019;50.576;8.568;2024-02-23T00:28:23;7.90;52.80
44305;DHT22;30019;50.576;8.568;2024-02-23T00:30:49;7.90;52.80
44305;DHT22;30019;50.576;8.568;2024-02-23T00:33:14;7.80;53.40
44305;DHT22;30019;50.576;8.568;2024-02-23T00:35:40;7.80;53.20
44305;DHT22;30019;50.576;8.568;2024-02-23T00:38:05;7.70;53.60
44305;DHT22;30019;50.576;8.568;2024-02-23T00:40:32;7.70;53.20
44305;DHT22;30019;50.576;8.568;2024-02-23T00:42:58;7.70;53.50
44305;DHT22;30019;50.576;8.568;2024-02-23T00:45:25;7.70;53.60
44305;DHT22;30019;50.576;8.568;2024-02-23T00:47:51;7.70;53.50
44305;DHT22;30019;50.576;8.568;2024-02-23T00:50:16;7.60;54.50
44305;DHT22;30019;50.576;8.568;2024-02-23T00:52:42;7.60;53.70
44305;DHT22;30019;50.576;8.568;2024-02-23T00:55:08;7.60;53.70
44305;DHT22;30019;50.576;8.568;2024-02-23T00:57:34;7.60;53.50
44305;DHT22;30019;50.576;8.568;2024-02-23T01:00:01;7.60;53.80
44305;DHT22;30019;50.576;8.568;2024-02-23T01:02:26;7.70;54.10
44305;DHT22;30019;50.576;8.568;2024-02-23T01:04:52;7.60;53.80
44305;DHT22;30019;50.576;8.568;2024-02-23T01:07:22;7.70;54.10
44305;DHT22;30019;50.576;8.568;2024-02-23T01:09:48;7.60;54.80
44305;DHT22;30019;50.576;8.568;2024-02-23T01:12:13;7.60;55.10
44305;DHT22;30019;50.576;8.568;2024-02-23T01:14:39;7.60;54.50
44305;DHT22;30019;50.576;8.568;2024-02-23T01:17:04;7.50;54.70
44305;DHT22;30019;50.576;8.568;2024-02-23T01:19:30;7.30;58.00
44305;DHT22;30019;50.576;8.568;2024-02-23T01:21:55;7.10;58.20
44305;DHT22;30019;50.576;8.568;2024-02-23T01:24:25;7.00;58.00
44305;DHT22;30019;50.576;8.568;2024-02-23T01:26:53;6.90;58.80
44305;DHT22;30019;50.576;8.568;2024-02-23T01:29:19;6.80;59.80
44305;DHT22;30019;50.576;8.568;2024-02-23T01:31:45;6.70;58.70
44305;DHT22;30019;50.576;8.568;2024-02-23T01:34:11;6.70;58.90
44305;DHT22;30019;50.576;8.568;2024-02-23T01:36:36;6.60;58.00
44305;DHT22;30019;50.576;8.568;2024-02-23T01:39:02;6.60;57.80
44305;DHT22;30019;50.576;8.568;2024-02-23T01:41:29;6.60;57.10
44305;DHT22;30019;50.576;8.568;2024-02-23T01:43:54;6.60;56.50
44305;DHT22;30019;50.576;8.568;2024-02-23T01:46:20;6.60;56.70
44305;DHT22;30019;50.576;8.568;2024-02-23T01:48:46;6.60;56.60
44305;DHT22;30019;50.576;8.568;2024-02-23T01:51:11;6.70;56.80
44305;DHT22;30019;50.576;8.568;2024-02-23T01:53:38;6.70;56.60
44305;DHT22;30019;50.576;8.568;2024-02-23T01:56:04;6.70;56.50
44305;DHT22;30019;50.576;8.568;2024-02-23T01:58:30;6.70;58.10
44305;DHT22;30019;50.576;8.568;2024-02-23T02:00:57;6.20;63.20
44305;DHT22;30019;50.576;8.568;2024-02-23T02:03:23;5.50;66.20
44305;DHT22;30019;50.576;8.568;2024-02-23T02:05:48;5.30;67.20
44305;DHT22;30019;50.576;8.568;2024-02-23T02:08:15;5.20;67.40
44305;DHT22;30019;50.576;8.568;2024-02-23T02:10:42;5.10;67.50
44305;DHT22;30019;50.576;8.568;2024-02-23T02:13:08;4.90;69.40
44305;DHT22;30019;50.576;8.568;2024-02-23T02:15:34;4.90;69.10
44305;DHT22;30019;50.576;8.568;2024-02-23T02:17:59;4.90;69.00
44305;DHT22;30019;50.576;8.568;2024-02-23T02:20:25;4.80;68.90
44305;DHT22;30019;50.576;8.568;2024-02-23T02:22:53;4.80;69.30
44305;DHT22;30019;50.576;8.568;2024-02-23T02:25:19;4.70;69.60
44305;DHT22;30019;50.576;8.568;2024-02-23T02:27:45;4.70;69.80
44305;DHT22;30019;50.576;8.568;2024-02-23T02:30:14;4.60;69.90
44305;DHT22;30019;50.576;8.568;2024-02-23T02:32:39;4.60;69.20
44305;DHT22;30019;50.576;8.568;2024-02-23T02:35:06;4.60;69.50
44305;DHT22;30019;50.576;8.568;2024-02-23T02:37:31;4.50;69.40
44305;DHT22;30019;50.576;8.568;2024-02-23T02:39:57;4.60;69.60
44305;DHT22;30019;50.576;8.568;2024-02-23T02:42:22;4.60;68.70
44305;DHT22;30019;50.576;8.568;2024-02-23T02:44:48;4.70;68.80
44305;DHT22;30019;50.576;8.568;2024-02-23T02:47:13;4.60;67.40
44305;DHT22;30019;50.576;8.568;2024-02-23T02:49:39;4.70;67.00
44305;DHT22;30019;50.576;8.568;2024-02-23T02:52:05;4.70;66.00
44305;DHT22;30019;50.576;8.568;2024-02-23T02:54:31;4.80;65.90
44305;DHT22;30019;50.576;8.568;2024-02-23T02:56:57;4.80;66.20
44305;DHT22;30019;50.576;8.568;2024-02-23T02:59:23;4.80;66.40
44305;DHT22;30019;50.576;8.568;2024-02-23T03:01:48;4.70;66.50
44305;DHT22;30019;50.576;8.568;2024-02-23T03:04:14;4.60;66.30
44305;DHT22;30019;50.576;8.568;2024-02-23T03:06:40;4.60;66.30
44305;DHT22;30019;50.576;8.568;2024-02-23T03:09:05;4.60;66.50
44305;DHT22;30019;50.576;8.568;2024-02-23T03:11:32;4.60;66.50
44305;DHT22;30019;50.576;8.568;2024-02-23T03:13:57;4.50;66.70
44305;DHT22;30019;50.576;8.568;2024-02-23T03:16:23;4.60;66.40
44305;DHT22;30019;50.576;8.568;2024-02-23T03:18:51;4.60;65.70
44305;DHT22;30019;50.576;8.568;2024-02-23T03:21:17;4.50;66.20
44305;DHT22;30019;50.576;8.568;2024-02-23T03:23:42;4.50;65.40
44305;DHT22;30019;50.576;8.568;2024-02-23T03:26:08;4.60;65.00
44305;DHT22;30019;50.576;8.568;2024-02-23T03:28:33;4.50;64.40
44305;DHT22;30019;50.576;8.568;2024-02-23T03:31:00;4.60;64.50
44305;DHT22;30019;50.576;8.568;2024-02-23T03:33:26;4.50;64.30
44305;DHT22;30019;50.576;8.568;2024-02-23T03:35:52;4.70;63.30
44305;DHT22;30019;50.576;8.568;2024-02-23T03:38:17;4.80;62.50
44305;DHT22;30019;50.576;8.568;2024-02-23T03:40:43;4.80;62.60
44305;DHT22;30019;50.576;8.568;2024-02-23T03:43:09;4.80;62.50
44305;DHT22;30019;50.576;8.568;2024-02-23T03:45:34;5.00;61.50
44305;DHT22;30019;50.576;8.568;2024-02-23T03:48:00;5.00;60.70
44305;DHT22;30019;50.576;8.568;2024-02-23T03:50:26;5.00;60.30
44305;DHT22;30019;50.576;8.568;2024-02-23T03:52:51;5.00;60.60
44305;DHT22;30019;50.576;8.568;2024-02-23T03:55:17;4.90;60.80
44305;DHT22;30019;50.576;8.568;2024-02-23T03:57:42;4.90;60.60
44305;DHT22;30019;50.576;8.568;2024-02-23T04:00:08;5.00;60.60
44305;DHT22;30019;50.576;8.568;2024-02-23T04:02:34;5.00;61.10
44305;DHT22;30019;50.576;8.568;2024-02-23T04:05:00;5.10;61.10
44305;DHT22;30019;50.576;8.568;2024-02-23T04:07:26;5.10;60.30
44305;DHT22;30019;50.576;8.568;2024-02-23T04:09:51;5.10;61.80
44305;DHT22;30019;50.576;8.568;2024-02-23T04:12:21;5.00;61.80
44305;DHT22;30019;50.576;8.568;2024-02-23T04:14:46;5.10;62.30
44305;DHT22;30019;50.576;8.568;2024-02-23T04:17:12;5.00;60.30
44305;DHT22;30019;50.576;8.568;2024-02-23T04:19:38;5.00;60.30
44305;DHT22;30019;50.576;8.568;2024-02-23T04:22:05;4.90;60.50
44305;DHT22;30019;50.576;8.568;2024-02-23T04:24:31;4.90;60.90
44305;DHT22;30019;50.576;8.568;2024-02-23T04:26:56;4.80;61.40
44305;DHT22;30019;50.576;8.568;2024-02-23T04:29:22;4.70;60.90
44305;DHT22;30019;50.576;8.568;2024-02-23T04:31:47;4.80;61.40
44305;DHT22;30019;50.576;8.568;2024-02-23T04:34:15;4.80;60.70
44305;DHT22;30019;50.576;8.568;2024-02-23T04:36:41;4.80;61.30
44305;DHT22;30019;50.576;8.568;2024-02-23T04:39:07;4.90;60.70
44305;DHT22;30019;50.576;8.568;2024-02-23T04:41:33;4.80;60.70
44305;DHT22;30019;50.576;8.568;2024-02-23T04:43:59;4.70;61.60
44305;DHT22;30019;50.576;8.568;2024-02-23T04:46:26;4.60;61.70
44305;DHT22;30019;50.576;8.568;2024-02-23T04:48:51;4.70;62.10
44305;DHT22;30019;50.576;8.568;2024-02-23T04:51:17;4.70;62.00
44305;DHT22;30019;50.576;8.568;2024-02-23T04:53:42;4.70;63.30
44305;DHT22;30019;50.576;8.568;2024-02-23T04:56:08;4.70;62.50
44305;DHT22;30019;50.576;8.568;2024-02-23T04:58:34;4.70;62.60
44305;DHT22;30019;50.576;8.568;2024-02-23T05:01:00;4.90;60.80
44305;DHT22;30019;50.576;8.568;2024-02-23T05:03:26;5.10;59.40
44305;DHT22;30019;50.576;8.568;2024-02-23T05:05:52;5.00;59.40
44305;DHT22;30019;50.576;8.568;2024-02-23T05:08:20;5.00;60.60
44305;DHT22;30019;50.576;8.568;2024-02-23T05:10:46;5.10;60.40
44305;DHT22;30019;50.576;8.568;2024-02-23T05:13:12;5.10;61.10
44305;DHT22;30019;50.576;8.568;2024-02-23T05:15:37;5.10;61.50
44305;DHT22;30019;50.576;8.568;2024-02-23T05:18:03;5.10;60.70
44305;DHT22;30019;50.576;8.568;2024-02-23T05:20:29;5.10;60.70
44305;DHT22;30019;50.576;8.568;2024-02-23T05:22:54;5.20;59.50
44305;DHT22;30019;50.576;8.568;2024-02-23T05:25:20;5.30;58.50
44305;DHT22;30019;50.576;8.568;2024-02-23T05:27:45;5.30;58.70
44305;DHT22;30019;50.576;8.568;2024-02-23T05:30:11;5.20;59.90
44305;DHT22;30019;50.576;8.568;2024-02-23T05:32:37;5.20;59.00
44305;DHT22;30019;50.576;8.568;2024-02-23T05:35:03;5.20;59.40
44305;DHT22;30019;50.576;8.568;2024-02-23T05:37:29;5.20;58.00
44305;DHT22;30019;50.576;8.568;2024-02-23T05:39:54;5.20;59.20
44305;DHT22;30019;50.576;8.568;2024-02-23T05:42:20;5.10;58.90
44305;DHT22;30019;50.576;8.568;2024-02-23T05:44:46;5.10;58.50
44305;DHT22;30019;50.576;8.568;2024-02-23T05:47:12;5.10;59.50
44305;DHT22;30019;50.576;8.568;2024-02-23T05:49:39;5.10;59.00
44305;DHT22;30019;50.576;8.568;2024-02-23T05:52:05;5.10;58.70
44305;DHT22;30019;50.576;8.568;2024-02-23T05:54:31;5.10;58.10
44305;DHT22;30019;50.576;8.568;2024-02-23T05:56:56;5.20;58.00
44305;DHT22;30019;50.576;8.568;2024-02-23T05:59:22;5.20;57.70
44305;DHT22;30019;50.576;8.568;2024-02-23T06:01:48;5.20;57.50
44305;DHT22;30019;50.576;8.568;2024-02-23T06:04:13;5.10;58.40
44305;DHT22;30019;50.576;8.568;2024-02-23T06:06:42;5.20;58.30
44305;DHT22;30019;50.576;8.568;2024-02-23T06:09:08;5.20;58.10
44305;DHT22;30019;50.576;8.568;2024-02-23T06:11:35;5.20;57.30
44305;DHT22;30019;50.576;8.568;2024-02-23T06:14:00;5.20;57.60
44305;DHT22;30019;50.576;8.568;2024-02-23T06:16:26;5.10;57.10
44305;DHT22;30019;50.576;8.568;2024-02-23T06:18:51;5.10;57.90
44305;DHT22;30019;50.576;8.568;2024-02-23T06:21:18;5.10;57.70
44305;DHT22;30019;50.576;8.568;2024-02-23T06:23:43;5.10;57.60
44305;DHT22;30019;50.576;8.568;2024-02-23T06:26:10;5.10;58.60
44305;DHT22;30019;50.576;8.568;2024-02-23T06:28:36;5.00;58.10
44305;DHT22;30019;50.576;8.568;2024-02-23T06:31:03;5.00;58.20
44305;DHT22;30019;50.576;8.568;2024-02-23T06:33:30;5.00;58.90
44305;DHT22;30019;50.576;8.568;2024-02-23T06:35:56;5.00;58.80
44305;DHT22;30019;50.576;8.568;2024-02-23T06:38:29;5.00;59.20
44305;DHT22;30019;50.576;8.568;2024-02-23T06:40:54;5.00;58.20
44305;DHT22;30019;50.576;8.568;2024-02-23T06:43:21;5.10;59.20
44305;DHT22;30019;50.576;8.568;2024-02-23T06:45:47;5.10;58.60
44305;DHT22;30019;50.576;8.568;2024-02-23T06:48:12;5.10;58.20
44305;DHT22;30019;50.576;8.568;2024-02-23T06:50:38;5.20;58.40
44305;DHT22;30019;50.576;8.568;2024-02-23T06:53:03;5.20;57.60
44305;DHT22;30019;50.576;8.568;2024-02-23T06:55:29;5.30;58.70
44305;DHT22;30019;50.576;8.568;2024-02-23T06:57:55;5.30;57.60
44305;DHT22;30019;50.576;8.568;2024-02-23T07:00:21;5.30;57.80
44305;DHT22;30019;50.576;8.568;2024-02-23T07:02:49;5.30;57.60
44305;DHT22;30019;50.576;8.568;2024-02-23T07:05:14;5.40;59.20
44305;DHT22;30019;50.576;8.568;2024-02-23T07:07:40;5.40;57.90
44305;DHT22;30019;50.576;8.568;2024-02-23T07:10:07;5.40;57.60
44305;DHT22;30019;50.576;8.568;2024-02-23T07:12:32;5.40;58.30
44305;DHT22;30019;50.576;8.568;2024-02-23T07:14:58;5.30;58.40
44305;DHT22;30019;50.576;8.568;2024-02-23T07:17:23;5.20;58.60
44305;DHT22;30019;50.576;8.568;2024-02-23T07:19:49;5.20;60.80
44305;DHT22;30019;50.576;8.568;2024-02-23T07:22:16;5.20;61.40
44305;DHT22;30019;50.576;8.568;2024-02-23T07:24:43;5.10;61.30
44305;DHT22;30019;50.576;8.568;2024-02-23T07:27:09;5.10;61.80
44305;DHT22;30019;50.576;8.568;2024-02-23T07:29:35;5.10;63.20
44305;DHT22;30019;50.576;8.568;2024-02-23T07:32:01;5.10;63.30
44305;DHT22;30019;50.576;8.568;2024-02-23T07:34:27;5.20;63.20
44305;DHT22;30019;50.576;8.568;2024-02-23T07:36:53;5.30;62.50
44305;DHT22;30019;50.576;8.568;2024-02-23T07:39:19;5.30;63.10
44305;DHT22;30019;50.576;8.568;2024-02-23T07:41:44;5.30;62.00
44305;DHT22;30019;50.576;8.568;2024-02-23T07:44:10;5.40;62.00
44305;DHT22;30019;50.576;8.568;2024-02-23T07:46:36;5.40;61.50
44305;DHT22;30019;50.576;8.568;2024-02-23T07:49:02;5.40;61.10
44305;DHT22;30019;50.576;8.568;2024-02-23T07:51:27;5.40;61.80
44305;DHT22;30019;50.576;8.568;2024-02-23T07:53:53;5.50;62.40
44305;DHT22;30019;50.576;8.568;2024-02-23T07:56:18;5.50;62.40
44305;DHT22;30019;50.576;8.568;2024-02-23T07:58:44;5.50;61.40
44305;DHT22;30019;50.576;8.568;2024-02-23T08:01:09;5.40;61.40
44305;DHT22;30019;50.576;8.568;2024-02-23T08:03:35;5.50;62.50
44305;DHT22;30019;50.576;8.568;2024-02-23T08:06:00;5.60;62.20
44305;DHT22;30019;50.576;8.568;2024-02-23T08:08:26;5.60;61.90
44305;DHT22;30019;50.576;8.568;2024-02-23T08:10:53;5.60;60.80
44305;DHT22;30019;50.576;8.568;2024-02-23T08:13:19;5.80;60.50
44305;DHT22;30019;50.576;8.568;2024-02-23T08:15:44;5.80;58.90
44305;DHT22;30019;50.576;8.568;2024-02-23T08:18:10;6.00;57.50
44305;DHT22;30019;50.576;8.568;2024-02-23T08:20:36;6.10;57.40
44305;DHT22;30019;50.576;8.568;2024-02-23T08:23:01;6.20;56.80
44305;DHT22;30019;50.576;8.568;2024-02-23T08:25:27;6.30;56.40
44305;DHT22;30019;50.576;8.568;2024-02-23T08:27:56;6.50;57.40
44305;DHT22;30019;50.576;8.568;2024-02-23T08:30:22;6.50;56.50
44305;DHT22;30019;50.576;8.568;2024-02-23T08:32:48;6.60;56.60
44305;DHT22;30019;50.576;8.568;2024-02-23T08:35:13;6.70;56.60
44305;DHT22;30019;50.576;8.568;2024-02-23T08:37:40;6.70;55.80
44305;DHT22;30019;50.576;8.568;2024-02-23T08:40:08;6.50;55.80
44305;DHT22;30019;50.576;8.568;2024-02-23T08:42:33;6.50;56.40
44305;DHT22;30019;50.576;8.568;2024-02-23T08:44:59;6.50;56.60
44305;DHT22;30019;50.576;8.568;2024-02-23T08:47:25;6.50;56.60
44305;DHT22;30019;50.576;8.568;2024-02-23T08:49:53;6.50;56.50
44305;DHT22;30019;50.576;8.568;2024-02-23T08:52:19;6.40;56.50
44305;DHT22;30019;50.576;8.568;2024-02-23T08:54:44;6.40;56.00
44305;DHT22;30019;50.576;8.568;2024-02-23T08:57:10;6.50;56.70
44305;DHT22;30019;50.576;8.568;2024-02-23T08:59:35;6.60;55.10
44305;DHT22;30019;50.576;8.568;2024-02-23T09:02:02;6.70;55.30
44305;DHT22;30019;50.576;8.568;2024-02-23T09:04:28;6.70;55.50
44305;DHT22;30019;50.576;8.568;2024-02-23T09:07:16;6.70;55.00
44305;DHT22;30019;50.576;8.568;2024-02-23T09:09:49;6.80;55.40
44305;DHT22;30019;50.576;8.568;2024-02-23T09:12:15;6.90;54.70
44305;DHT22;30019;50.576;8.568;2024-02-23T09:14:42;7.00;54.60
44305;DHT22;30019;50.576;8.568;2024-02-23T09:17:11;7.10;53.40
44305;DHT22;30019;50.576;8.568;2024-02-23T09:19:38;7.20;52.80
44305;DHT22;30019;50.576;8.568;2024-02-23T09:22:03;7.40;52.80
44305;DHT22;30019;50.576;8.568;2024-02-23T09:24:29;7.40;53.00
44305;DHT22;30019;50.576;8.568;2024-02-23T09:30:16;7.40;51.40
44305;DHT22;30019;50.576;8.568;2024-02-23T09:32:42;7.20;52.30
44305;DHT22;30019;50.576;8.568;2024-02-23T09:35:09;7.20;53.00
44305;DHT22;30019;50.576;8.568;2024-02-23T09:37:35;7.40;52.70
44305;DHT22;30019;50.576;8.568;2024-02-23T09:40:00;7.30;52.80
44305;DHT22;30019;50.576;8.568;2024-02-23T09:42:28;7.30;52.80
44305;DHT22;30019;50.576;8.568;2024-02-23T09:44:58;7.20;52.40
44305;DHT22;30019;50.576;8.568;2024-02-23T09:47:26;7.20;53.10
44305;DHT22;30019;50.576;8.568;2024-02-23T09:49:53;7.20;53.30
44305;DHT22;30019;50.576;8.568;2024-02-23T09:52:19;7.10;54.30
44305;DHT22;30019;50.576;8.568;2024-02-23T09:54:45;7.10;54.80
44305;DHT22;30019;50.576;8.568;2024-02-23T09:57:11;7.10;53.90
44305;DHT22;30019;50.576;8.568;2024-02-23T09:59:37;7.30;54.70
44305;DHT22;30019;50.576;8.568;2024-02-23T10:02:07;7.40;54.70
44305;DHT22;30019;50.576;8.568;2024-02-23T10:04:34;7.60;53.90
44305;DHT22;30019;50.576;8.568;2024-02-23T10:07:00;8.00;55.10
44305;DHT22;30019;50.576;8.568;2024-02-23T10:09:25;8.40;52.90
44305;DHT22;30019;50.576;8.568;2024-02-23T10:11:54;8.60;52.30
44305;DHT22;30019;50.576;8.568;2024-02-23T10:14:22;8.80;51.80
44305;DHT22;30019;50.576;8.568;2024-02-23T10:16:48;8.80;51.80
44305;DHT22;30019;50.576;8.568;2024-02-23T10:19:22;8.80;50.60
44305;DHT22;30019;50.576;8.568;2024-02-23T10:21:47;9.00;51.60
44305;DHT22;30019;50.576;8.568;2024-02-23T10:24:16;9.20;50.60
44305;DHT22;30019;50.576;8.568;2024-02-23T10:26:42;9.20;50.00
44305;DHT22;30019;50.576;8.568;2024-02-23T10:29:07;8.60;50.50
44305;DHT22;30019;50.576;8.568;2024-02-23T10:31:35;8.90;52.20
44305;DHT22;30019;50.576;8.568;2024-02-23T10:34:09;9.40;51.20
44305;DHT22;30019;50.576;8.568;2024-02-23T10:36:40;9.70;51.00
44305;DHT22;30019;50.576;8.568;2024-02-23T10:39:08;9.90;50.10
44305;DHT22;30019;50.576;8.568;2024-02-23T10:41:35;9.60;49.80
44305;DHT22;30019;50.576;8.568;2024-02-23T10:44:03;9.30;49.20
44305;DHT22;30019;50.576;8.568;2024-02-23T10:46:33;9.00;49.00
44305;DHT22;30019;50.576;8.568;2024-02-23T10:48:59;9.10;51.30
44305;DHT22;30019;50.576;8.568;2024-02-23T10:51:26;9.10;50.40
44305;DHT22;30019;50.576;8.568;2024-02-23T10:53:52;8.80;50.40
44305;DHT22;30019;50.576;8.568;2024-02-23T10:56:18;8.70;52.30
44305;DHT22;30019;50.576;8.568;2024-02-23T10:58:45;8.60;51.50
44305;DHT22;30019;50.576;8.568;2024-02-23T11:01:10;8.50;51.20
44305;DHT22;30019;50.576;8.568;2024-02-23T11:03:37;8.60;50.70
44305;DHT22;30019;50.576;8.568;2024-02-23T11:06:07;8.40;49.50
44305;DHT22;30019;50.576;8.568;2024-02-23T11:08:33;8.50;50.50
44305;DHT22;30019;50.576;8.568;2024-02-23T11:11:07;8.80;50.70
44305;DHT22;30019;50.576;8.568;2024-02-23T11:16:03;9.50;48.20
44305;DHT22;30019;50.576;8.568;2024-02-23T11:18:29;9.50;47.80
44305;DHT22;30019;50.576;8.568;2024-02-23T11:20:58;10.00;46.10
44305;DHT22;30019;50.576;8.568;2024-02-23T11:23:24;10.90;45.90
44305;DHT22;30019;50.576;8.568;2024-02-23T11:28:28;12.20;42.70
44305;DHT22;30019;50.576;8.568;2024-02-23T11:30:54;11.60;42.90
44305;DHT22;30019;50.576;8.568;2024-02-23T11:33:29;11.80;42.60
44305;DHT22;30019;50.576;8.568;2024-02-23T11:36:07;12.10;42.50
44305;DHT22;30019;50.576;8.568;2024-02-23T11:38:33;10.80;42.80
44305;DHT22;30019;50.576;8.568;2024-02-23T11:41:00;10.00;43.70
44305;DHT22;30019;50.576;8.568;2024-02-23T11:43:27;9.90;46.80
44305;DHT22;30019;50.576;8.568;2024-02-23T11:45:53;10.60;45.00
44305;DHT22;30019;50.576;8.568;2024-02-23T11:48:18;11.70;43.80
44305;DHT22;30019;50.576;8.568;2024-02-23T11:50:45;11.30;43.60
44305;DHT22;30019;50.576;8.568;2024-02-23T11:53:10;10.30;44.00
44305;DHT22;30019;50.576;8.568;2024-02-23T11:55:36;10.10;45.30
44305;DHT22;30019;50.576;8.568;2024-02-23T11:58:02;9.40;48.10
44305;DHT22;30019;50.576;8.568;2024-02-23T12:00:27;9.20;47.60
44305;DHT22;30019;50.576;8.568;2024-02-23T12:02:55;9.20;48.30
44305;DHT22;30019;50.576;8.568;2024-02-23T12:05:21;9.90;47.50
44305;DHT22;30019;50.576;8.568;2024-02-23T12:07:47;10.40;47.40
44305;DHT22;30019;50.576;8.568;2024-02-23T12:10:12;10.30;47.00
44305;DHT22;30019;50.576;8.568;2024-02-23T12:12:39;9.50;46.40
44305;DHT22;30019;50.576;8.568;2024-02-23T12:15:06;9.10;48.00
44305;DHT22;30019;50.576;8.568;2024-02-23T12:17:31;9.10;48.20
44305;DHT22;30019;50.576;8.568;2024-02-23T12:20:02;9.00;48.20
44305;DHT22;30019;50.576;8.568;2024-02-23T12:22:28;9.00;49.40
44305;DHT22;30019;50.576;8.568;2024-02-23T12:24:57;9.20;51.20
44305;DHT22;30019;50.576;8.568;2024-02-23T12:27:23;9.20;49.60
44305;DHT22;30019;50.576;8.568;2024-02-23T12:29:54;9.20;48.30
44305;DHT22;30019;50.576;8.568;2024-02-23T12:32:20;9.20;49.40
44305;DHT22;30019;50.576;8.568;2024-02-23T12:34:46;9.10;47.30
44305;DHT22;30019;50.576;8.568;2024-02-23T12:37:16;9.00;47.20
44305;DHT22;30019;50.576;8.568;2024-02-23T12:39:42;8.80;46.50
44305;DHT22;30019;50.576;8.568;2024-02-23T12:42:08;8.90;46.60
44305;DHT22;30019;50.576;8.568;2024-02-23T12:44:34;9.10;45.90
44305;DHT22;30019;50.576;8.568;2024-02-23T12:47:00;9.00;46.90
44305;DHT22;30019;50.576;8.568;2024-02-23T12:49:26;9.10;48.00
44305;DHT22;30019;50.576;8.568;2024-02-23T12:51:51;9.40;46.70
44305;DHT22;30019;50.576;8.568;2024-02-23T12:54:17;9.80;47.00
44305;DHT22;30019;50.576;8.568;2024-02-23T12:56:42;9.80;47.00
44305;DHT22;30019;50.576;8.568;2024-02-23T12:59:08;9.80;45.90
44305;DHT22;30019;50.576;8.568;2024-02-23T13:01:35;10.40;46.50
44305;DHT22;30019;50.576;8.568;2024-02-23T13:04:03;11.70;43.00
44305;DHT22;30019;50.576;8.568;2024-02-23T13:06:29;11.80;40.50
44305;DHT22;30019;50.576;8.568;2024-02-23T13:08:54;12.00;41.60
44305;DHT22;30019;50.576;8.568;2024-02-23T13:11:20;11.40;42.00
44305;DHT22;30019;50.576;8.568;2024-02-23T13:13:45;10.40;43.70
44305;DHT22;30019;50.576;8.568;2024-02-23T13:16:11;9.90;46.80
44305;DHT22;30019;50.576;8.568;2024-02-23T13:18:37;9.60;46.20
44305;DHT22;30019;50.576;8.568;2024-02-23T13:21:03;9.50;47.90
44305;DHT22;30019;50.576;8.568;2024-02-23T13:23:29;9.90;47.20
44305;DHT22;30019;50.576;8.568;2024-02-23T13:25:54;9.90;46.00
44305;DHT22;30019;50.576;8.568;2024-02-23T13:28:20;9.90;47.60
44305;DHT22;30019;50.576;8.568;2024-02-23T13:30:46;9.80;47.80
44305;DHT22;30019;50.576;8.568;2024-02-23T13:33:11;9.80;47.00
44305;DHT22;30019;50.576;8.568;2024-02-23T13:35:37;9.50;47.00
44305;DHT22;30019;50.576;8.568;2024-02-23T13:38:02;9.50;47.20
44305;DHT22;30019;50.576;8.568;2024-02-23T13:40:31;9.50;45.30
44305;DHT22;30019;50.576;8.568;2024-02-23T13:42:57;9.60;46.40
44305;DHT22;30019;50.576;8.568;2024-02-23T13:45:22;10.00;45.70
44305;DHT22;30019;50.576;8.568;2024-02-23T13:48:00;9.70;46.30
44305;DHT22;30019;50.576;8.568;2024-02-23T13:50:26;9.40;46.30
44305;DHT22;30019;50.576;8.568;2024-02-23T13:52:52;9.40;47.70
44305;DHT22;30019;50.576;8.568;2024-02-23T13:55:18;10.30;47.10
44305;DHT22;30019;50.576;8.568;2024-02-23T13:57:46;11.20;47.00
44305;DHT22;30019;50.576;8.568;2024-02-23T14:00:12;11.50;45.10
44305;DHT22;30019;50.576;8.568;2024-02-23T14:02:38;12.10;43.80
44305;DHT22;30019;50.576;8.568;2024-02-23T14:05:06;12.20;43.20
44305;DHT22;30019;50.576;8.568;2024-02-23T14:07:33;12.10;42.10
44305;DHT22;30019;50.576;8.568;2024-02-23T14:09:58;12.30;41.10
44305;DHT22;30019;50.576;8.568;2024-02-23T14:12:24;11.30;41.10
44305;DHT22;30019;50.576;8.568;2024-02-23T14:14:50;10.50;41.80
44305;DHT22;30019;50.576;8.568;2024-02-23T14:17:15;10.10;42.70
44305;DHT22;30019;50.576;8.568;2024-02-23T14:19:41;10.10;43.60
44305;DHT22;30019;50.576;8.568;2024-02-23T14:22:06;10.10;44.10
44305;DHT22;30019;50.576;8.568;2024-02-23T14:24:32;10.30;45.20
44305;DHT22;30019;50.576;8.568;2024-02-23T14:26:58;10.20;43.00
44305;DHT22;30019;50.576;8.568;2024-02-23T14:29:23;10.00;43.60
44305;DHT22;30019;50.576;8.568;2024-02-23T14:31:49;9.90;44.90
44305;DHT22;30019;50.576;8.568;2024-02-23T14:34:14;10.20;42.90
44305;DHT22;30019;50.576;8.568;2024-02-23T14:36:40;10.40;42.50
44305;DHT22;30019;50.576;8.568;2024-02-23T14:39:05;10.50;43.80
44305;DHT22;30019;50.576;8.568;2024-02-23T14:41:31;10.10;41.30
44305;DHT22;30019;50.576;8.568;2024-02-23T14:43:56;9.80;42.20
44305;DHT22;30019;50.576;8.568;2024-02-23T14:46:22;9.60;42.80
44305;DHT22;30019;50.576;8.568;2024-02-23T14:48:47;9.40;43.50
44305;DHT22;30019;50.576;8.568;2024-02-23T14:51:15;9.40;43.40
44305;DHT22;30019;50.576;8.568;2024-02-23T14:53:41;9.30;43.10
44305;DHT22;30019;50.576;8.568;2024-02-23T14:56:06;9.40;44.40
44305;DHT22;30019;50.576;8.568;2024-02-23T14:58:32;9.50;43.60
44305;DHT22;30019;50.576;8.568;2024-02-23T15:00:57;9.50;44.20
44305;DHT22;30019;50.576;8.568;2024-02-23T15:03:23;9.70;43.40
44305;DHT22;30019;50.576;8.568;2024-02-23T15:05:49;9.70;42.90
44305;DHT22;30019;50.576;8.568;2024-02-23T15:08:14;9.60;42.00
44305;DHT22;30019;50.576;8.568;2024-02-23T15:10:40;9.40;42.90
44305;DHT22;30019;50.576;8.568;2024-02-23T15:13:06;9.10;43.40
44305;DHT22;30019;50.576;8.568;2024-02-23T15:15:31;8.90;43.30
44305;DHT22;30019;50.576;8.568;2024-02-23T15:17:57;8.80;44.30
44305;DHT22;30019;50.576;8.568;2024-02-23T15:20:22;8.90;43.80
44305;DHT22;30019;50.576;8.568;2024-02-23T15:22:48;9.00;44.70
44305;DHT22;30019;50.576;8.568;2024-02-23T15:25:15;9.10;44.10
44305;DHT22;30019;50.576;8.568;2024-02-23T15:27:40;9.10;43.70
44305;DHT22;30019;50.576;8.568;2024-02-23T15:30:07;9.00;43.80
44305;DHT22;30019;50.576;8.568;2024-02-23T15:32:36;9.00;44.00
44305;DHT22;30019;50.576;8.568;2024-02-23T15:35:03;8.90;44.10
44305;DHT22;30019;50.576;8.568;2024-02-23T15:37:29;8.90;45.00
44305;DHT22;30019;50.576;8.568;2024-02-23T15:39:55;8.80;44.10
44305;DHT22;30019;50.576;8.568;2024-02-23T15:42:20;8.80;44.40
44305;DHT22;30019;50.576;8.568;2024-02-23T15:44:47;8.70;45.20
44305;DHT22;30019;50.576;8.568;2024-02-23T15:47:12;8.70;45.20